sensor_id;sensor_type;location;lat;lon;timestamp;pressure;altitude;pressure_sealevel;temperature;humidity
27643;BME280;15053;48.618;10.024;2023-06-14T00:02:21;93852.28;;;15.28;47.69
27643;BME280;15053;48.618;10.024;2023-06-14T00:04:48;93852.28;;;15.28;47.91
27643;BME280;15053;48.618;10.024;2023-06-14T00:07:17;93851.19;;;15.29;47.60
27643;BME280;15053;48.618;10.024;2023-06-14T00:09:45;93859.28;;;15.36;47.59
27643;BME280;15053;48.618;10.024;2023-06-14T00:12:11;93859.06;;;15.42;46.70
27643;BME280;15053;48.618;10.024;2023-06-14T00:14:38;93855.19;;;15.48;46.70
27643;BME280;15053;48.618;10.024;2023-06-14T00:17:05;93847.75;;;15.50;46.02
27643;BME280;15053;48.618;10.024;2023-06-14T00:19:33;93853.88;;;15.54;46.04
27643;BME280;15053;48.618;10.024;2023-06-14T00:22:02;93834.41;;;15.55;45.33
27643;BME280;15053;48.618;10.024;2023-06-14T00:24:29;93841.19;;;15.56;45.01
27643;BME280;15053;48.618;10.024;2023-06-14T00:26:56;93850.16;;;15.55;45.50
27643;BME280;15053;48.618;10.024;2023-06-14T00:29:23;93845.34;;;15.57;45.32
27643;BME280;15053;48.618;10.024;2023-06-14T00:31:49;93840.53;;;15.59;44.48
27643;BME280;15053;48.618;10.024;2023-06-14T00:34:17;93846.22;;;15.61;44.60
27643;BME280;15053;48.618;10.024;2023-06-14T00:36:44;93842.75;;;15.57;45.12
27643;BME280;15053;48.618;10.024;2023-06-14T00:39:13;93841.84;;;15.53;45.34
27643;BME280;15053;48.618;10.024;2023-06-14T00:41:39;93832.66;;;15.47;45.57
27643;BME280;15053;48.618;10.024;2023-06-14T00:44:06;93839.50;;;15.39;45.82
27643;BME280;15053;48.618;10.024;2023-06-14T00:46:33;93839.59;;;15.30;45.51
27643;BME280;15053;48.618;10.024;2023-06-14T00:49:00;93837.19;;;15.25;45.75
27643;BME280;15053;48.618;10.024;2023-06-14T00:51:27;93842.31;;;15.22;45.48
27643;BME280;15053;48.618;10.024;2023-06-14T00:53:59;93843.28;;;15.17;45.69
27643;BME280;15053;48.618;10.024;2023-06-14T00:56:26;93847.22;;;15.11;46.89
27643;BME280;15053;48.618;10.024;2023-06-14T00:58:54;93840.31;;;15.07;46.74
27643;BME280;15053;48.618;10.024;2023-06-14T01:01:21;93848.50;;;15.05;46.91
27643;BME280;15053;48.618;10.024;2023-06-14T01:03:48;93840.19;;;15.03;47.48
27643;BME280;15053;48.618;10.024;2023-06-14T01:09:06;93835.03;;;14.95;47.57
27643;BME280;15053;48.618;10.024;2023-06-14T01:11:43;93837.28;;;14.84;48.27
27643;BME280;15053;48.618;10.024;2023-06-14T01:14:13;93839.56;;;14.73;48.76
27643;BME280;15053;48.618;10.024;2023-06-14T01:16:40;93831.91;;;14.68;48.87
27643;BME280;15053;48.618;10.024;2023-06-14T01:19:10;93843.34;;;14.64;48.84
27643;BME280;15053;48.618;10.024;2023-06-14T01:21:39;93843.53;;;14.59;48.82
27643;BME280;15053;48.618;10.024;2023-06-14T01:24:09;93834.78;;;14.55;49.32
27643;BME280;15053;48.618;10.024;2023-06-14T01:26:35;93835.44;;;14.52;49.61
27643;BME280;15053;48.618;10.024;2023-06-14T01:29:04;93839.03;;;14.47;49.28
27643;BME280;15053;48.618;10.024;2023-06-14T01:31:32;93830.59;;;14.42;49.21
27643;BME280;15053;48.618;10.024;2023-06-14T01:34:07;93839.53;;;14.41;49.51
27643;BME280;15053;48.618;10.024;2023-06-14T01:36:36;93829.41;;;14.31;49.61
27643;BME280;15053;48.618;10.024;2023-06-14T01:39:04;93838.84;;;14.23;49.87
27643;BME280;15053;48.618;10.024;2023-06-14T01:41:31;93836.94;;;14.11;50.88
27643;BME280;15053;48.618;10.024;2023-06-14T01:44:00;93832.06;;;14.01;50.79
27643;BME280;15053;48.618;10.024;2023-06-14T01:46:27;93831.81;;;13.94;51.06
27643;BME280;15053;48.618;10.024;2023-06-14T01:48:54;93833.69;;;13.85;51.48
27643;BME280;15053;48.618;10.024;2023-06-14T01:51:20;93838.34;;;13.80;51.87
27643;BME280;15053;48.618;10.024;2023-06-14T01:53:47;93841.75;;;13.80;52.14
27643;BME280;15053;48.618;10.024;2023-06-14T01:56:14;93840.19;;;13.79;52.08
27643;BME280;15053;48.618;10.024;2023-06-14T01:58:41;93832.34;;;13.79;52.30
27643;BME280;15053;48.618;10.024;2023-06-14T02:01:09;93834.66;;;13.81;51.76
27643;BME280;15053;48.618;10.024;2023-06-14T02:03:37;93829.59;;;13.76;52.20
27643;BME280;15053;48.618;10.024;2023-06-14T02:06:05;93835.66;;;13.68;52.16
27643;BME280;15053;48.618;10.024;2023-06-14T02:08:32;93837.97;;;13.60;52.56
27643;BME280;15053;48.618;10.024;2023-06-14T02:10:59;93831.09;;;13.56;52.03
27643;BME280;15053;48.618;10.024;2023-06-14T02:13:26;93822.19;;;13.48;52.62
27643;BME280;15053;48.618;10.024;2023-06-14T02:15:52;93827.88;;;13.50;52.23
27643;BME280;15053;48.618;10.024;2023-06-14T02:18:21;93832.66;;;13.48;52.88
27643;BME280;15053;48.618;10.024;2023-06-14T02:20:48;93828.50;;;13.47;52.73
27643;BME280;15053;48.618;10.024;2023-06-14T02:23:14;93828.81;;;13.46;52.78
27643;BME280;15053;48.618;10.024;2023-06-14T02:25:41;93823.28;;;13.47;52.85
27643;BME280;15053;48.618;10.024;2023-06-14T02:28:09;93818.34;;;13.46;53.27
27643;BME280;15053;48.618;10.024;2023-06-14T02:30:37;93826.19;;;13.46;52.95
27643;BME280;15053;48.618;10.024;2023-06-14T02:33:05;93829.91;;;13.45;52.98
27643;BME280;15053;48.618;10.024;2023-06-14T02:35:31;93832.53;;;13.45;52.86
27643;BME280;15053;48.618;10.024;2023-06-14T02:37:58;93836.22;;;13.44;53.00
27643;BME280;15053;48.618;10.024;2023-06-14T02:40:25;93832.19;;;13.46;53.04
27643;BME280;15053;48.618;10.024;2023-06-14T02:42:51;93842.66;;;13.46;53.13
27643;BME280;15053;48.618;10.024;2023-06-14T02:45:18;93836.97;;;13.44;53.47
27643;BME280;15053;48.618;10.024;2023-06-14T02:47:46;93833.00;;;13.38;53.39
27643;BME280;15053;48.618;10.024;2023-06-14T02:50:13;93848.09;;;13.33;53.39
27643;BME280;15053;48.618;10.024;2023-06-14T02:52:40;93838.25;;;13.30;53.73
27643;BME280;15053;48.618;10.024;2023-06-14T02:55:10;93838.25;;;13.30;53.46
27643;BME280;15053;48.618;10.024;2023-06-14T02:57:37;93828.13;;;13.28;53.87
27643;BME280;15053;48.618;10.024;2023-06-14T03:00:05;93834.25;;;13.32;53.61
27643;BME280;15053;48.618;10.024;2023-06-14T03:02:36;93833.03;;;13.30;53.70
27643;BME280;15053;48.618;10.024;2023-06-14T03:05:02;93836.13;;;13.32;53.56
27643;BME280;15053;48.618;10.024;2023-06-14T03:07:30;93838.59;;;13.28;53.90
27643;BME280;15053;48.618;10.024;2023-06-14T03:09:58;93839.06;;;13.22;54.21
27643;BME280;15053;48.618;10.024;2023-06-14T03:12:25;93834.63;;;13.14;54.32
27643;BME280;15053;48.618;10.024;2023-06-14T03:14:53;93833.38;;;13.02;54.64
27643;BME280;15053;48.618;10.024;2023-06-14T03:17:23;93833.13;;;12.95;54.37
27643;BME280;15053;48.618;10.024;2023-06-14T03:19:51;93836.66;;;12.91;54.62
27643;BME280;15053;48.618;10.024;2023-06-14T03:22:17;93834.19;;;12.86;55.30
27643;BME280;15053;48.618;10.024;2023-06-14T03:24:44;93834.69;;;12.79;55.20
27643;BME280;15053;48.618;10.024;2023-06-14T03:27:13;93841.16;;;12.73;55.49
27643;BME280;15053;48.618;10.024;2023-06-14T03:29:44;93839.16;;;12.70;55.25
27643;BME280;15053;48.618;10.024;2023-06-14T03:32:10;93839.47;;;12.69;55.41
27643;BME280;15053;48.618;10.024;2023-06-14T03:34:42;93846.81;;;12.67;55.53
27643;BME280;15053;48.618;10.024;2023-06-14T03:37:14;93836.09;;;12.68;55.47
27643;BME280;15053;48.618;10.024;2023-06-14T03:39:41;93838.69;;;12.68;55.62
27643;BME280;15053;48.618;10.024;2023-06-14T03:42:16;93843.91;;;12.68;55.42
27643;BME280;15053;48.618;10.024;2023-06-14T03:44:43;93836.09;;;12.68;55.66
27643;BME280;15053;48.618;10.024;2023-06-14T03:47:11;93842.09;;;12.69;55.58
27643;BME280;15053;48.618;10.024;2023-06-14T03:49:37;93841.16;;;12.73;55.84
27643;BME280;15053;48.618;10.024;2023-06-14T03:52:04;93838.38;;;12.78;55.65
27643;BME280;15053;48.618;10.024;2023-06-14T03:54:32;93848.19;;;12.81;55.61
27643;BME280;15053;48.618;10.024;2023-06-14T03:57:19;93851.59;;;12.82;55.82
27643;BME280;15053;48.618;10.024;2023-06-14T03:59:49;93861.09;;;12.78;55.95
27643;BME280;15053;48.618;10.024;2023-06-14T04:02:16;93861.09;;;12.78;55.76
27643;BME280;15053;48.618;10.024;2023-06-14T04:04:44;93856.50;;;12.83;55.58
27643;BME280;15053;48.618;10.024;2023-06-14T04:07:12;93864.31;;;12.92;55.83
27643;BME280;15053;48.618;10.024;2023-06-14T04:09:40;93860.16;;;12.99;55.49
27643;BME280;15053;48.618;10.024;2023-06-14T04:12:07;93858.31;;;13.09;55.23
27643;BME280;15053;48.618;10.024;2023-06-14T04:14:39;93873.66;;;13.19;54.96
27643;BME280;15053;48.618;10.024;2023-06-14T04:17:07;93861.34;;;13.28;54.86
27643;BME280;15053;48.618;10.024;2023-06-14T04:19:36;93864.72;;;13.37;54.88
27643;BME280;15053;48.618;10.024;2023-06-14T04:22:03;93862.81;;;13.46;54.46
27643;BME280;15053;48.618;10.024;2023-06-14T04:24:33;93863.25;;;13.56;54.34
27643;BME280;15053;48.618;10.024;2023-06-14T04:27:01;93875.53;;;13.65;53.59
27643;BME280;15053;48.618;10.024;2023-06-14T04:29:29;93872.88;;;13.73;53.58
27643;BME280;15053;48.618;10.024;2023-06-14T04:32:00;93869.91;;;13.83;53.30
27643;BME280;15053;48.618;10.024;2023-06-14T04:34:28;93870.75;;;13.96;53.49
27643;BME280;15053;48.618;10.024;2023-06-14T04:36:56;93875.31;;;14.07;53.25
27643;BME280;15053;48.618;10.024;2023-06-14T04:39:45;93875.69;;;14.18;53.19
27643;BME280;15053;48.618;10.024;2023-06-14T04:42:12;93878.28;;;14.27;52.81
27643;BME280;15053;48.618;10.024;2023-06-14T04:44:42;93887.31;;;14.38;53.05
27643;BME280;15053;48.618;10.024;2023-06-14T04:47:10;93884.16;;;14.53;52.24
27643;BME280;15053;48.618;10.024;2023-06-14T04:49:38;93883.88;;;14.66;51.53
27643;BME280;15053;48.618;10.024;2023-06-14T04:52:06;93891.16;;;14.82;50.75
27643;BME280;15053;48.618;10.024;2023-06-14T04:54:36;93891.66;;;14.96;50.17
27643;BME280;15053;48.618;10.024;2023-06-14T04:57:07;93891.03;;;15.11;49.18
27643;BME280;15053;48.618;10.024;2023-06-14T04:59:34;93894.13;;;15.25;48.58
27643;BME280;15053;48.618;10.024;2023-06-14T05:02:02;93898.22;;;15.34;48.70
27643;BME280;15053;48.618;10.024;2023-06-14T05:04:28;93900.00;;;15.43;48.38
27643;BME280;15053;48.618;10.024;2023-06-14T05:06:57;93901.44;;;15.52;48.10
27643;BME280;15053;48.618;10.024;2023-06-14T05:09:24;93902.56;;;15.63;48.04
27643;BME280;15053;48.618;10.024;2023-06-14T05:11:51;93903.34;;;15.76;47.51
27643;BME280;15053;48.618;10.024;2023-06-14T05:14:17;93901.50;;;15.88;47.58
27643;BME280;15053;48.618;10.024;2023-06-14T05:16:45;93900.31;;;15.98;47.69
27643;BME280;15053;48.618;10.024;2023-06-14T05:19:12;93907.31;;;16.06;47.78
27643;BME280;15053;48.618;10.024;2023-06-14T05:21:39;93903.03;;;16.14;47.53
27643;BME280;15053;48.618;10.024;2023-06-14T05:24:09;93909.72;;;16.23;47.34
27643;BME280;15053;48.618;10.024;2023-06-14T05:26:36;93910.78;;;16.34;47.04
27643;BME280;15053;48.618;10.024;2023-06-14T05:29:02;93910.75;;;16.46;47.02
27643;BME280;15053;48.618;10.024;2023-06-14T05:31:29;93913.72;;;16.57;46.80
27643;BME280;15053;48.618;10.024;2023-06-14T05:33:56;93919.53;;;16.63;47.19
27643;BME280;15053;48.618;10.024;2023-06-14T05:36:23;93920.84;;;16.69;46.80
27643;BME280;15053;48.618;10.024;2023-06-14T05:38:49;93917.13;;;16.70;47.09
27643;BME280;15053;48.618;10.024;2023-06-14T05:41:17;93919.75;;;16.70;46.93
27643;BME280;15053;48.618;10.024;2023-06-14T05:43:44;93912.06;;;16.65;47.11
27643;BME280;15053;48.618;10.024;2023-06-14T05:46:10;93914.69;;;16.77;47.02
27643;BME280;15053;48.618;10.024;2023-06-14T05:48:37;93922.44;;;16.85;46.95
27643;BME280;15053;48.618;10.024;2023-06-14T05:51:03;93923.06;;;16.94;46.67
27643;BME280;15053;48.618;10.024;2023-06-14T05:53:30;93912.63;;;16.98;46.14
27643;BME280;15053;48.618;10.024;2023-06-14T05:55:56;93914.56;;;17.13;45.86
27643;BME280;15053;48.618;10.024;2023-06-14T05:58:23;93921.28;;;17.26;45.62
27643;BME280;15053;48.618;10.024;2023-06-14T06:00:49;93914.03;;;17.35;45.32
27643;BME280;15053;48.618;10.024;2023-06-14T06:03:17;93917.25;;;17.44;45.07
27643;BME280;15053;48.618;10.024;2023-06-14T06:05:43;93920.41;;;17.50;44.47
27643;BME280;15053;48.618;10.024;2023-06-14T06:08:10;93912.06;;;17.48;44.22
27643;BME280;15053;48.618;10.024;2023-06-14T06:10:37;93918.97;;;17.52;44.34
27643;BME280;15053;48.618;10.024;2023-06-14T06:13:03;93919.09;;;17.56;44.10
27643;BME280;15053;48.618;10.024;2023-06-14T06:15:30;93918.75;;;17.57;43.85
27643;BME280;15053;48.618;10.024;2023-06-14T06:17:56;93925.88;;;17.57;43.95
27643;BME280;15053;48.618;10.024;2023-06-14T06:20:24;93929.28;;;17.57;44.15
27643;BME280;15053;48.618;10.024;2023-06-14T06:22:56;93923.69;;;17.59;44.16
27643;BME280;15053;48.618;10.024;2023-06-14T06:25:23;93929.38;;;17.61;44.28
27643;BME280;15053;48.618;10.024;2023-06-14T06:27:53;93926.66;;;17.57;44.18
27643;BME280;15053;48.618;10.024;2023-06-14T06:30:20;93935.50;;;17.65;44.42
27643;BME280;15053;48.618;10.024;2023-06-14T06:32:47;93935.25;;;17.70;44.57
27643;BME280;15053;48.618;10.024;2023-06-14T06:35:14;93936.38;;;17.85;44.63
27643;BME280;15053;48.618;10.024;2023-06-14T06:37:42;93934.81;;;17.99;44.70
27643;BME280;15053;48.618;10.024;2023-06-14T06:40:09;93940.09;;;18.15;44.86
27643;BME280;15053;48.618;10.024;2023-06-14T06:42:36;93943.25;;;18.20;44.41
27643;BME280;15053;48.618;10.024;2023-06-14T06:45:04;93943.06;;;18.29;44.36
27643;BME280;15053;48.618;10.024;2023-06-14T06:47:31;93952.00;;;18.40;44.21
27643;BME280;15053;48.618;10.024;2023-06-14T06:49:58;93955.66;;;18.51;44.25
27643;BME280;15053;48.618;10.024;2023-06-14T06:52:24;93947.91;;;18.58;43.76
27643;BME280;15053;48.618;10.024;2023-06-14T06:54:51;93951.81;;;18.64;43.76
27643;BME280;15053;48.618;10.024;2023-06-14T06:57:21;93955.28;;;18.68;43.76
27643;BME280;15053;48.618;10.024;2023-06-14T06:59:49;93952.03;;;18.75;44.06
27643;BME280;15053;48.618;10.024;2023-06-14T07:02:16;93950.31;;;18.82;43.74
27643;BME280;15053;48.618;10.024;2023-06-14T07:04:43;93959.91;;;18.91;43.40
27643;BME280;15053;48.618;10.024;2023-06-14T07:07:10;93960.06;;;18.98;43.28
27643;BME280;15053;48.618;10.024;2023-06-14T07:09:36;93955.75;;;19.09;43.37
27643;BME280;15053;48.618;10.024;2023-06-14T07:12:03;93961.25;;;19.19;43.51
27643;BME280;15053;48.618;10.024;2023-06-14T07:14:30;93958.41;;;19.28;43.46
27643;BME280;15053;48.618;10.024;2023-06-14T07:16:56;93960.75;;;19.33;43.16
27643;BME280;15053;48.618;10.024;2023-06-14T07:19:23;93957.00;;;19.34;42.94
27643;BME280;15053;48.618;10.024;2023-06-14T07:21:49;93962.28;;;19.34;42.76
27643;BME280;15053;48.618;10.024;2023-06-14T07:24:18;93969.50;;;19.37;42.77
27643;BME280;15053;48.618;10.024;2023-06-14T07:26:44;93967.03;;;19.44;42.57
27643;BME280;15053;48.618;10.024;2023-06-14T07:29:11;93980.38;;;19.51;42.65
27643;BME280;15053;48.618;10.024;2023-06-14T07:31:37;93976.34;;;19.57;42.54
27643;BME280;15053;48.618;10.024;2023-06-14T07:34:04;93984.38;;;19.64;42.23
27643;BME280;15053;48.618;10.024;2023-06-14T07:36:30;93988.00;;;19.75;42.28
27643;BME280;15053;48.618;10.024;2023-06-14T07:38:57;93986.59;;;19.81;41.70
27643;BME280;15053;48.618;10.024;2023-06-14T07:41:23;93985.28;;;19.91;41.77
27643;BME280;15053;48.618;10.024;2023-06-14T07:43:50;93989.91;;;19.97;41.73
27643;BME280;15053;48.618;10.024;2023-06-14T07:46:16;93994.56;;;20.04;41.91
27643;BME280;15053;48.618;10.024;2023-06-14T07:48:43;93995.03;;;20.10;42.14
27643;BME280;15053;48.618;10.024;2023-06-14T07:51:10;93996.66;;;20.18;41.79
27643;BME280;15053;48.618;10.024;2023-06-14T07:53:37;93995.28;;;20.24;41.50
27643;BME280;15053;48.618;10.024;2023-06-14T07:56:03;93997.28;;;20.30;41.38
27643;BME280;15053;48.618;10.024;2023-06-14T07:58:30;93995.53;;;20.38;41.18
27643;BME280;15053;48.618;10.024;2023-06-14T08:00:56;93996.47;;;20.49;40.69
27643;BME280;15053;48.618;10.024;2023-06-14T08:03:23;93998.44;;;20.55;40.59
27643;BME280;15053;48.618;10.024;2023-06-14T08:05:50;93999.59;;;20.58;40.41
27643;BME280;15053;48.618;10.024;2023-06-14T08:08:17;93998.56;;;20.63;40.18
27643;BME280;15053;48.618;10.024;2023-06-14T08:10:44;93994.06;;;20.67;39.73
27643;BME280;15053;48.618;10.024;2023-06-14T08:13:10;93993.44;;;20.77;39.87
27643;BME280;15053;48.618;10.024;2023-06-14T08:15:37;93997.38;;;20.86;40.01
27643;BME280;15053;48.618;10.024;2023-06-14T08:18:03;94004.34;;;20.98;39.81
27643;BME280;15053;48.618;10.024;2023-06-14T08:20:31;93998.75;;;21.03;40.02
27643;BME280;15053;48.618;10.024;2023-06-14T08:22:58;93999.63;;;21.10;39.76
27643;BME280;15053;48.618;10.024;2023-06-14T08:25:24;93999.75;;;21.21;39.42
27643;BME280;15053;48.618;10.024;2023-06-14T08:27:52;94002.91;;;21.30;38.89
27643;BME280;15053;48.618;10.024;2023-06-14T08:30:18;94003.84;;;21.45;39.05
27643;BME280;15053;48.618;10.024;2023-06-14T08:32:45;94001.66;;;21.54;38.34
27643;BME280;15053;48.618;10.024;2023-06-14T08:35:16;94000.63;;;21.62;38.50
27643;BME280;15053;48.618;10.024;2023-06-14T08:37:44;94005.31;;;21.72;38.58
27643;BME280;15053;48.618;10.024;2023-06-14T08:40:19;94005.38;;;21.79;38.38
27643;BME280;15053;48.618;10.024;2023-06-14T08:42:54;94002.31;;;21.77;38.39
27643;BME280;15053;48.618;10.024;2023-06-14T08:45:23;94009.19;;;21.82;38.16
27643;BME280;15053;48.618;10.024;2023-06-14T08:47:53;94004.00;;;21.92;38.47
27643;BME280;15053;48.618;10.024;2023-06-14T08:50:25;94003.81;;;22.08;37.85
27643;BME280;15053;48.618;10.024;2023-06-14T08:52:57;94005.03;;;22.17;37.24
27643;BME280;15053;48.618;10.024;2023-06-14T08:55:27;94003.59;;;22.30;36.95
27643;BME280;15053;48.618;10.024;2023-06-14T08:57:58;94003.34;;;22.43;36.64
27643;BME280;15053;48.618;10.024;2023-06-14T09:00:26;94004.56;;;22.52;36.08
27643;BME280;15053;48.618;10.024;2023-06-14T09:02:53;94005.34;;;22.56;35.85
27643;BME280;15053;48.618;10.024;2023-06-14T09:05:24;94013.75;;;22.62;35.86
27643;BME280;15053;48.618;10.024;2023-06-14T09:07:52;94009.25;;;22.66;35.53
27643;BME280;15053;48.618;10.024;2023-06-14T09:10:20;94005.09;;;22.68;35.29
27643;BME280;15053;48.618;10.024;2023-06-14T09:12:47;94004.03;;;22.80;35.65
27643;BME280;15053;48.618;10.024;2023-06-14T09:15:14;93998.03;;;22.90;35.52
27643;BME280;15053;48.618;10.024;2023-06-14T09:17:41;94002.25;;;22.98;35.23
27643;BME280;15053;48.618;10.024;2023-06-14T09:20:08;94011.41;;;23.04;34.20
27643;BME280;15053;48.618;10.024;2023-06-14T09:22:45;94010.28;;;23.09;33.16
27643;BME280;15053;48.618;10.024;2023-06-14T09:25:12;94003.13;;;23.16;33.54
27643;BME280;15053;48.618;10.024;2023-06-14T09:28:01;94010.81;;;23.35;33.96
27643;BME280;15053;48.618;10.024;2023-06-14T09:30:28;94008.91;;;23.36;33.96
27643;BME280;15053;48.618;10.024;2023-06-14T09:32:55;94014.28;;;23.39;34.41
27643;BME280;15053;48.618;10.024;2023-06-14T09:35:22;94013.59;;;23.60;34.70
27643;BME280;15053;48.618;10.024;2023-06-14T09:37:48;94021.28;;;23.76;34.43
27643;BME280;15053;48.618;10.024;2023-06-14T09:40:20;94014.84;;;23.84;32.65
27643;BME280;15053;48.618;10.024;2023-06-14T09:42:47;94019.00;;;23.78;33.00
27643;BME280;15053;48.618;10.024;2023-06-14T09:45:15;94019.03;;;23.99;33.41
27643;BME280;15053;48.618;10.024;2023-06-14T09:47:46;94021.41;;;24.22;32.67
27643;BME280;15053;48.618;10.024;2023-06-14T09:50:32;94022.94;;;24.40;32.46
27643;BME280;15053;48.618;10.024;2023-06-14T09:53:02;94020.28;;;24.54;31.72
27643;BME280;15053;48.618;10.024;2023-06-14T09:55:30;94015.34;;;24.71;30.79
27643;BME280;15053;48.618;10.024;2023-06-14T09:58:00;94016.91;;;24.86;30.69
27643;BME280;15053;48.618;10.024;2023-06-14T10:00:31;94021.06;;;25.04;30.84
27643;BME280;15053;48.618;10.024;2023-06-14T10:03:14;94014.16;;;25.21;30.52
27643;BME280;15053;48.618;10.024;2023-06-14T10:05:45;94022.50;;;25.37;29.88
27643;BME280;15053;48.618;10.024;2023-06-14T10:08:15;94021.75;;;25.40;29.92
27643;BME280;15053;48.618;10.024;2023-06-14T10:10:43;94026.66;;;25.45;29.47
27643;BME280;15053;48.618;10.024;2023-06-14T10:13:11;94035.41;;;25.63;29.37
27643;BME280;15053;48.618;10.024;2023-06-14T10:18:17;93997.31;;;25.59;29.30
27643;BME280;15053;48.618;10.024;2023-06-14T10:20:58;94018.31;;;25.40;29.74
27643;BME280;15053;48.618;10.024;2023-06-14T10:23:31;94019.88;;;25.23;29.45
27643;BME280;15053;48.618;10.024;2023-06-14T10:25:59;94025.94;;;25.34;29.35
27643;BME280;15053;48.618;10.024;2023-06-14T10:28:26;94020.63;;;25.20;29.50
27643;BME280;15053;48.618;10.024;2023-06-14T10:31:09;94022.59;;;24.88;29.77
27643;BME280;15053;48.618;10.024;2023-06-14T10:39:15;94012.31;;;24.65;30.70
27643;BME280;15053;48.618;10.024;2023-06-14T10:41:52;94008.09;;;25.10;30.25
27643;BME280;15053;48.618;10.024;2023-06-14T10:46:49;94010.41;;;24.94;29.99
27643;BME280;15053;48.618;10.024;2023-06-14T10:49:19;94011.91;;;24.59;30.43
27643;BME280;15053;48.618;10.024;2023-06-14T10:51:50;94006.97;;;24.33;31.20
27643;BME280;15053;48.618;10.024;2023-06-14T10:54:16;94012.28;;;24.23;31.51
27643;BME280;15053;48.618;10.024;2023-06-14T10:59:14;94012.31;;;24.54;32.32
27643;BME280;15053;48.618;10.024;2023-06-14T11:01:55;94011.53;;;25.10;31.17
27643;BME280;15053;48.618;10.024;2023-06-14T11:04:34;94010.34;;;25.29;29.86
27643;BME280;15053;48.618;10.024;2023-06-14T11:10:15;94020.59;;;25.34;30.16
27643;BME280;15053;48.618;10.024;2023-06-14T11:12:48;94012.97;;;25.36;30.40
27643;BME280;15053;48.618;10.024;2023-06-14T11:15:15;94018.66;;;25.45;30.35
27643;BME280;15053;48.618;10.024;2023-06-14T11:17:51;94017.47;;;25.71;29.63
27643;BME280;15053;48.618;10.024;2023-06-14T11:20:25;94019.69;;;25.87;29.32
27643;BME280;15053;48.618;10.024;2023-06-14T11:22:54;94020.28;;;26.22;29.82
27643;BME280;15053;48.618;10.024;2023-06-14T11:25:21;94017.00;;;26.52;28.24
27643;BME280;15053;48.618;10.024;2023-06-14T11:27:49;94010.47;;;26.60;28.28
27643;BME280;15053;48.618;10.024;2023-06-14T11:30:16;94004.94;;;26.85;27.89
27643;BME280;15053;48.618;10.024;2023-06-14T11:32:46;94006.50;;;27.20;27.19
27643;BME280;15053;48.618;10.024;2023-06-14T11:35:14;94011.34;;;27.32;26.82
27643;BME280;15053;48.618;10.024;2023-06-14T11:37:41;94007.06;;;27.41;27.38
27643;BME280;15053;48.618;10.024;2023-06-14T11:40:09;94005.28;;;27.65;26.36
27643;BME280;15053;48.618;10.024;2023-06-14T11:42:40;94001.50;;;27.63;26.60
27643;BME280;15053;48.618;10.024;2023-06-14T11:45:08;93995.28;;;27.69;26.78
27643;BME280;15053;48.618;10.024;2023-06-14T11:47:37;94000.41;;;27.57;26.99
27643;BME280;15053;48.618;10.024;2023-06-14T11:50:08;94000.47;;;27.12;26.57
27643;BME280;15053;48.618;10.024;2023-06-14T11:52:37;94003.97;;;26.61;27.05
27643;BME280;15053;48.618;10.024;2023-06-14T11:55:05;94003.75;;;26.38;27.94
27643;BME280;15053;48.618;10.024;2023-06-14T11:57:36;94007.63;;;26.81;28.24
27643;BME280;15053;48.618;10.024;2023-06-14T12:00:03;94005.28;;;27.28;27.34
27643;BME280;15053;48.618;10.024;2023-06-14T12:02:37;93999.00;;;27.08;27.19
27643;BME280;15053;48.618;10.024;2023-06-14T12:05:05;93998.13;;;26.73;27.57
27643;BME280;15053;48.618;10.024;2023-06-14T12:07:39;94001.50;;;26.33;28.32
27643;BME280;15053;48.618;10.024;2023-06-14T12:10:09;94005.50;;;25.97;28.21
27643;BME280;15053;48.618;10.024;2023-06-14T12:12:38;94004.50;;;25.69;27.98
27643;BME280;15053;48.618;10.024;2023-06-14T12:15:07;93993.13;;;25.44;28.96
27643;BME280;15053;48.618;10.024;2023-06-14T12:17:35;93996.97;;;25.33;28.57
27643;BME280;15053;48.618;10.024;2023-06-14T12:20:06;94006.50;;;25.30;28.98
27643;BME280;15053;48.618;10.024;2023-06-14T12:22:37;94009.13;;;25.44;28.68
27643;BME280;15053;48.618;10.024;2023-06-14T12:25:04;93999.59;;;25.57;28.23
27643;BME280;15053;48.618;10.024;2023-06-14T12:27:31;93995.13;;;26.13;27.91
27643;BME280;15053;48.618;10.024;2023-06-14T12:30:03;93996.19;;;26.77;26.60
27643;BME280;15053;48.618;10.024;2023-06-14T12:32:29;93996.59;;;27.17;25.20
27643;BME280;15053;48.618;10.024;2023-06-14T12:34:56;93994.78;;;27.47;25.35
27643;BME280;15053;48.618;10.024;2023-06-14T12:37:23;93997.97;;;27.32;25.34
27643;BME280;15053;48.618;10.024;2023-06-14T12:39:49;93994.13;;;26.99;26.12
27643;BME280;15053;48.618;10.024;2023-06-14T12:42:17;93998.50;;;26.75;26.69
27643;BME280;15053;48.618;10.024;2023-06-14T12:44:43;94006.44;;;26.38;27.23
27643;BME280;15053;48.618;10.024;2023-06-14T12:47:10;93987.50;;;26.08;27.59
27643;BME280;15053;48.618;10.024;2023-06-14T12:49:37;94009.78;;;25.84;27.46
27643;BME280;15053;48.618;10.024;2023-06-14T12:52:03;94009.94;;;25.52;28.08
27643;BME280;15053;48.618;10.024;2023-06-14T12:54:30;94006.91;;;25.32;28.39
27643;BME280;15053;48.618;10.024;2023-06-14T12:57:06;94019.88;;;25.23;28.94
27643;BME280;15053;48.618;10.024;2023-06-14T12:59:33;94015.34;;;25.06;28.68
27643;BME280;15053;48.618;10.024;2023-06-14T13:02:11;94019.91;;;25.05;29.58
27643;BME280;15053;48.618;10.024;2023-06-14T13:04:38;94022.56;;;25.09;29.23
27643;BME280;15053;48.618;10.024;2023-06-14T13:07:05;94002.03;;;25.02;29.51
27643;BME280;15053;48.618;10.024;2023-06-14T13:09:32;94024.50;;;25.05;29.10
27643;BME280;15053;48.618;10.024;2023-06-14T13:11:58;94021.44;;;24.96;29.45
27643;BME280;15053;48.618;10.024;2023-06-14T13:14:25;94014.59;;;24.91;29.87
27643;BME280;15053;48.618;10.024;2023-06-14T13:16:52;94008.50;;;24.84;29.55